sensor_id;sensor_type;location;lat;lon;timestamp;P1;durP1;ratioP1;P2;durP2;ratioP2
32637;SDS011;19045;52.268;10.506;2022-11-09T00:00:37;4.03;;;1.30;;
32637;SDS011;19045;52.268;10.506;2022-11-09T00:03:03;3.95;;;1.48;;
32637;SDS011;19045;52.268;10.506;2022-11-09T00:05:30;4.55;;;1.52;;
32637;SDS011;19045;52.268;10.506;2022-11-09T00:07:58;4.00;;;1.65;;
32637;SDS011;19045;52.268;10.506;2022-11-09T00:10:25;2.72;;;1.83;;
32637;SDS011;19045;52.268;10.506;2022-11-09T00:12:51;3.40;;;1.58;;
32637;SDS011;19045;52.268;10.506;2022-11-09T00:15:18;4.40;;;1.80;;
32637;SDS011;19045;52.268;10.506;2022-11-09T00:17:45;7.95;;;2.00;;
32637;SDS011;19045;52.268;10.506;2022-11-09T00:20:11;3.00;;;1.80;;
32637;SDS011;19045;52.268;10.506;2022-11-09T00:22:38;7.70;;;1.45;;
32637;SDS011;19045;52.268;10.506;2022-11-09T00:25:06;3.97;;;1.60;;
32637;SDS011;19045;52.268;10.506;2022-11-09T00:27:34;4.10;;;1.67;;
32637;SDS011;19045;52.268;10.506;2022-11-09T00:30:00;4.55;;;1.90;;
32637;SDS011;19045;52.268;10.506;2022-11-09T00:32:27;5.22;;;1.92;;
32637;SDS011;19045;52.268;10.506;2022-11-09T00:34:53;8.80;;;2.63;;
32637;SDS011;19045;52.268;10.506;2022-11-09T00:37:20;7.60;;;2.70;;
32637;SDS011;19045;52.268;10.506;2022-11-09T00:39:47;7.00;;;2.38;;
32637;SDS011;19045;52.268;10.506;2022-11-09T00:42:15;5.03;;;2.33;;
32637;SDS011;19045;52.268;10.506;2022-11-09T00:44:41;8.45;;;2.80;;
32637;SDS011;19045;52.268;10.506;2022-11-09T00:47:08;6.70;;;2.67;;
32637;SDS011;19045;52.268;10.506;2022-11-09T00:49:34;10.23;;;2.70;;
32637;SDS011;19045;52.268;10.506;2022-11-09T00:52:01;6.05;;;2.67;;
32637;SDS011;19045;52.268;10.506;2022-11-09T00:54:28;9.35;;;3.05;;
32637;SDS011;19045;52.268;10.506;2022-11-09T00:56:54;9.63;;;2.90;;
32637;SDS011;19045;52.268;10.506;2022-11-09T00:59:24;8.52;;;2.70;;
32637;SDS011;19045;52.268;10.506;2022-11-09T01:01:50;5.88;;;2.80;;
32637;SDS011;19045;52.268;10.506;2022-11-09T01:04:17;8.70;;;2.92;;
32637;SDS011;19045;52.268;10.506;2022-11-09T01:06:43;7.25;;;2.60;;
32637;SDS011;19045;52.268;10.506;2022-11-09T01:09:10;8.15;;;2.60;;
32637;SDS011;19045;52.268;10.506;2022-11-09T01:11:37;10.00;;;2.17;;
32637;SDS011;19045;52.268;10.506;2022-11-09T01:14:03;7.60;;;2.92;;
32637;SDS011;19045;52.268;10.506;2022-11-09T01:16:31;5.13;;;1.88;;
32637;SDS011;19045;52.268;10.506;2022-11-09T01:18:58;4.53;;;2.00;;
32637;SDS011;19045;52.268;10.506;2022-11-09T01:21:25;3.90;;;1.70;;
32637;SDS011;19045;52.268;10.506;2022-11-09T01:23:55;3.70;;;1.83;;
32637;SDS011;19045;52.268;10.506;2022-11-09T01:26:28;2.70;;;1.70;;
32637;SDS011;19045;52.268;10.506;2022-11-09T01:28:55;4.35;;;1.65;;
32637;SDS011;19045;52.268;10.506;2022-11-09T01:31:21;2.70;;;1.42;;
32637;SDS011;19045;52.268;10.506;2022-11-09T01:33:49;3.92;;;1.35;;
32637;SDS011;19045;52.268;10.506;2022-11-09T01:36:16;6.43;;;1.85;;
32637;SDS011;19045;52.268;10.506;2022-11-09T01:38:45;2.58;;;1.30;;
32637;SDS011;19045;52.268;10.506;2022-11-09T01:41:14;4.00;;;1.63;;
32637;SDS011;19045;52.268;10.506;2022-11-09T01:43:42;2.05;;;1.52;;
32637;SDS011;19045;52.268;10.506;2022-11-09T01:46:14;3.20;;;1.45;;
32637;SDS011;19045;52.268;10.506;2022-11-09T01:48:46;6.28;;;1.42;;
32637;SDS011;19045;52.268;10.506;2022-11-09T01:51:21;2.75;;;1.67;;
32637;SDS011;19045;52.268;10.506;2022-11-09T01:53:54;3.15;;;1.55;;
32637;SDS011;19045;52.268;10.506;2022-11-09T01:59:06;6.90;;;1.67;;
32637;SDS011;19045;52.268;10.506;2022-11-09T02:01:36;6.45;;;1.70;;
32637;SDS011;19045;52.268;10.506;2022-11-09T02:04:05;5.13;;;1.70;;
32637;SDS011;19045;52.268;10.506;2022-11-09T02:06:34;5.40;;;2.22;;
32637;SDS011;19045;52.268;10.506;2022-11-09T02:09:02;5.22;;;1.70;;
32637;SDS011;19045;52.268;10.506;2022-11-09T02:11:33;3.08;;;1.55;;
32637;SDS011;19045;52.268;10.506;2022-11-09T02:14:01;3.30;;;1.83;;
32637;SDS011;19045;52.268;10.506;2022-11-09T02:16:29;4.20;;;1.50;;
32637;SDS011;19045;52.268;10.506;2022-11-09T02:18:57;3.22;;;1.77;;
32637;SDS011;19045;52.268;10.506;2022-11-09T02:21:27;4.88;;;1.80;;
32637;SDS011;19045;52.268;10.506;2022-11-09T02:23:56;4.20;;;1.67;;
32637;SDS011;19045;52.268;10.506;2022-11-09T02:26:24;4.03;;;2.08;;
32637;SDS011;19045;52.268;10.506;2022-11-09T02:28:55;7.88;;;2.05;;
32637;SDS011;19045;52.268;10.506;2022-11-09T02:31:24;2.13;;;1.63;;
32637;SDS011;19045;52.268;10.506;2022-11-09T02:33:55;3.67;;;1.63;;
32637;SDS011;19045;52.268;10.506;2022-11-09T02:36:28;2.80;;;1.50;;
32637;SDS011;19045;52.268;10.506;2022-11-09T02:38:55;5.57;;;1.60;;
32637;SDS011;19045;52.268;10.506;2022-11-09T02:41:22;2.45;;;1.42;;
32637;SDS011;19045;52.268;10.506;2022-11-09T02:43:49;2.10;;;1.10;;
32637;SDS011;19045;52.268;10.506;2022-11-09T02:46:22;4.45;;;1.60;;
32637;SDS011;19045;52.268;10.506;2022-11-09T02:48:50;5.00;;;1.38;;
32637;SDS011;19045;52.268;10.506;2022-11-09T02:51:17;2.92;;;1.20;;
32637;SDS011;19045;52.268;10.506;2022-11-09T02:53:45;3.58;;;1.60;;
32637;SDS011;19045;52.268;10.506;2022-11-09T02:56:11;3.97;;;1.55;;
32637;SDS011;19045;52.268;10.506;2022-11-09T02:58:45;4.05;;;1.60;;
32637;SDS011;19045;52.268;10.506;2022-11-09T03:01:11;3.55;;;1.92;;
32637;SDS011;19045;52.268;10.506;2022-11-09T03:03:38;3.00;;;1.83;;
32637;SDS011;19045;52.268;10.506;2022-11-09T03:06:05;5.25;;;2.08;;
32637;SDS011;19045;52.268;10.506;2022-11-09T03:08:31;6.32;;;1.75;;
32637;SDS011;19045;52.268;10.506;2022-11-09T03:10:59;6.80;;;2.00;;
32637;SDS011;19045;52.268;10.506;2022-11-09T03:13:26;6.15;;;2.22;;
32637;SDS011;19045;52.268;10.506;2022-11-09T03:15:53;3.40;;;2.17;;
32637;SDS011;19045;52.268;10.506;2022-11-09T03:18:19;5.00;;;2.00;;
32637;SDS011;19045;52.268;10.506;2022-11-09T03:20:46;4.30;;;1.70;;
32637;SDS011;19045;52.268;10.506;2022-11-09T03:23:13;11.45;;;2.15;;
32637;SDS011;19045;52.268;10.506;2022-11-09T03:25:39;6.80;;;2.25;;
32637;SDS011;19045;52.268;10.506;2022-11-09T03:28:07;5.20;;;2.03;;
32637;SDS011;19045;52.268;10.506;2022-11-09T03:33:16;4.95;;;1.73;;
32637;SDS011;19045;52.268;10.506;2022-11-09T03:35:43;6.13;;;2.22;;
32637;SDS011;19045;52.268;10.506;2022-11-09T03:38:09;3.90;;;1.80;;
32637;SDS011;19045;52.268;10.506;2022-11-09T03:40:36;6.70;;;2.22;;
32637;SDS011;19045;52.268;10.506;2022-11-09T03:43:03;4.95;;;2.20;;
32637;SDS011;19045;52.268;10.506;2022-11-09T03:45:31;6.90;;;2.83;;
32637;SDS011;19045;52.268;10.506;2022-11-09T03:47:57;3.92;;;1.92;;
32637;SDS011;19045;52.268;10.506;2022-11-09T03:50:25;5.32;;;1.70;;
32637;SDS011;19045;52.268;10.506;2022-11-09T03:52:53;4.65;;;1.40;;
32637;SDS011;19045;52.268;10.506;2022-11-09T03:55:20;6.28;;;1.60;;
32637;SDS011;19045;52.268;10.506;2022-11-09T03:57:47;3.35;;;1.27;;
32637;SDS011;19045;52.268;10.506;2022-11-09T04:00:15;4.43;;;1.33;;
32637;SDS011;19045;52.268;10.506;2022-11-09T04:02:45;3.38;;;1.90;;
32637;SDS011;19045;52.268;10.506;2022-11-09T04:05:12;3.75;;;1.48;;
32637;SDS011;19045;52.268;10.506;2022-11-09T04:07:39;5.18;;;1.48;;
32637;SDS011;19045;52.268;10.506;2022-11-09T04:10:06;1.83;;;1.05;;
32637;SDS011;19045;52.268;10.506;2022-11-09T04:12:33;3.17;;;1.33;;
32637;SDS011;19045;52.268;10.506;2022-11-09T04:15:00;4.57;;;1.70;;
32637;SDS011;19045;52.268;10.506;2022-11-09T04:17:26;3.13;;;1.27;;
32637;SDS011;19045;52.268;10.506;2022-11-09T04:19:54;3.28;;;1.05;;
32637;SDS011;19045;52.268;10.506;2022-11-09T04:22:21;2.03;;;1.40;;
32637;SDS011;19045;52.268;10.506;2022-11-09T04:24:48;3.72;;;1.20;;
32637;SDS011;19045;52.268;10.506;2022-11-09T04:27:14;2.72;;;1.30;;
32637;SDS011;19045;52.268;10.506;2022-11-09T04:29:41;2.65;;;1.10;;
32637;SDS011;19045;52.268;10.506;2022-11-09T04:32:07;1.77;;;1.20;;
32637;SDS011;19045;52.268;10.506;2022-11-09T04:34:34;5.55;;;1.30;;
32637;SDS011;19045;52.268;10.506;2022-11-09T04:37:02;2.08;;;1.13;;
32637;SDS011;19045;52.268;10.506;2022-11-09T04:39:29;4.93;;;1.35;;
32637;SDS011;19045;52.268;10.506;2022-11-09T04:41:55;2.80;;;1.50;;
32637;SDS011;19045;52.268;10.506;2022-11-09T04:44:22;2.83;;;1.40;;
32637;SDS011;19045;52.268;10.506;2022-11-09T04:46:48;2.95;;;1.50;;
32637;SDS011;19045;52.268;10.506;2022-11-09T04:49:15;3.40;;;1.33;;
32637;SDS011;19045;52.268;10.506;2022-11-09T04:51:42;2.58;;;0.95;;
32637;SDS011;19045;52.268;10.506;2022-11-09T04:54:10;4.15;;;1.52;;
32637;SDS011;19045;52.268;10.506;2022-11-09T04:56:37;3.08;;;1.83;;
32637;SDS011;19045;52.268;10.506;2022-11-09T04:59:04;3.17;;;1.92;;
32637;SDS011;19045;52.268;10.506;2022-11-09T05:01:30;3.00;;;1.73;;
32637;SDS011;19045;52.268;10.506;2022-11-09T05:03:57;4.85;;;1.70;;
32637;SDS011;19045;52.268;10.506;2022-11-09T05:06:23;5.20;;;1.40;;
32637;SDS011;19045;52.268;10.506;2022-11-09T05:09:00;3.55;;;1.50;;
32637;SDS011;19045;52.268;10.506;2022-11-09T05:11:29;3.45;;;1.45;;
32637;SDS011;19045;52.268;10.506;2022-11-09T05:13:56;3.70;;;1.20;;
32637;SDS011;19045;52.268;10.506;2022-11-09T05:16:23;1.65;;;1.25;;
32637;SDS011;19045;52.268;10.506;2022-11-09T05:18:49;3.22;;;1.30;;
32637;SDS011;19045;52.268;10.506;2022-11-09T05:21:17;2.38;;;1.23;;
32637;SDS011;19045;52.268;10.506;2022-11-09T05:23:44;1.17;;;0.90;;
32637;SDS011;19045;52.268;10.506;2022-11-09T05:26:26;2.28;;;1.20;;
32637;SDS011;19045;52.268;10.506;2022-11-09T05:28:55;4.53;;;1.67;;
32637;SDS011;19045;52.268;10.506;2022-11-09T05:31:23;2.70;;;1.52;;
32637;SDS011;19045;52.268;10.506;2022-11-09T05:33:50;4.15;;;1.35;;
32637;SDS011;19045;52.268;10.506;2022-11-09T05:36:17;2.05;;;1.10;;
32637;SDS011;19045;52.268;10.506;2022-11-09T05:38:44;5.57;;;1.52;;
32637;SDS011;19045;52.268;10.506;2022-11-09T05:41:11;2.55;;;1.38;;
32637;SDS011;19045;52.268;10.506;2022-11-09T05:43:38;4.32;;;1.75;;
32637;SDS011;19045;52.268;10.506;2022-11-09T05:46:06;3.08;;;1.48;;
32637;SDS011;19045;52.268;10.506;2022-11-09T05:48:33;3.10;;;1.40;;
32637;SDS011;19045;52.268;10.506;2022-11-09T05:51:00;2.15;;;1.42;;
32637;SDS011;19045;52.268;10.506;2022-11-09T05:53:28;2.97;;;1.42;;
32637;SDS011;19045;52.268;10.506;2022-11-09T05:55:55;3.53;;;1.20;;
32637;SDS011;19045;52.268;10.506;2022-11-09T05:58:21;2.63;;;1.30;;
32637;SDS011;19045;52.268;10.506;2022-11-09T06:00:48;2.30;;;1.48;;
32637;SDS011;19045;52.268;10.506;2022-11-09T06:03:16;2.88;;;1.40;;
32637;SDS011;19045;52.268;10.506;2022-11-09T06:05:43;6.55;;;1.33;;
32637;SDS011;19045;52.268;10.506;2022-11-09T06:08:09;4.03;;;1.70;;
32637;SDS011;19045;52.268;10.506;2022-11-09T06:10:38;5.95;;;1.80;;
32637;SDS011;19045;52.268;10.506;2022-11-09T06:13:05;3.00;;;1.80;;
32637;SDS011;19045;52.268;10.506;2022-11-09T06:15:32;5.00;;;1.85;;
32637;SDS011;19045;52.268;10.506;2022-11-09T06:17:59;3.28;;;1.80;;
32637;SDS011;19045;52.268;10.506;2022-11-09T06:20:27;8.20;;;2.30;;
32637;SDS011;19045;52.268;10.506;2022-11-09T06:22:54;8.85;;;2.65;;
32637;SDS011;19045;52.268;10.506;2022-11-09T06:25:22;20.23;;;2.30;;
32637;SDS011;19045;52.268;10.506;2022-11-09T06:27:49;3.70;;;1.85;;
32637;SDS011;19045;52.268;10.506;2022-11-09T06:30:18;5.78;;;1.73;;
32637;SDS011;19045;52.268;10.506;2022-11-09T06:32:45;4.50;;;1.80;;
32637;SDS011;19045;52.268;10.506;2022-11-09T06:35:12;5.32;;;1.77;;
32637;SDS011;19045;52.268;10.506;2022-11-09T06:37:39;3.58;;;1.50;;
32637;SDS011;19045;52.268;10.506;2022-11-09T06:40:07;7.80;;;1.80;;
32637;SDS011;19045;52.268;10.506;2022-11-09T06:42:34;4.57;;;1.73;;
32637;SDS011;19045;52.268;10.506;2022-11-09T06:45:01;3.92;;;1.75;;
32637;SDS011;19045;52.268;10.506;2022-11-09T06:47:27;3.55;;;1.77;;
32637;SDS011;19045;52.268;10.506;2022-11-09T06:49:54;3.17;;;1.90;;
32637;SDS011;19045;52.268;10.506;2022-11-09T06:52:21;4.90;;;2.05;;
32637;SDS011;19045;52.268;10.506;2022-11-09T06:54:49;5.28;;;1.95;;
32637;SDS011;19045;52.268;10.506;2022-11-09T06:57:15;5.43;;;2.17;;
32637;SDS011;19045;52.268;10.506;2022-11-09T06:59:42;7.07;;;2.40;;
32637;SDS011;19045;52.268;10.506;2022-11-09T07:02:09;7.70;;;2.30;;
32637;SDS011;19045;52.268;10.506;2022-11-09T07:04:41;8.90;;;2.53;;
32637;SDS011;19045;52.268;10.506;2022-11-09T07:07:07;6.97;;;2.45;;
32637;SDS011;19045;52.268;10.506;2022-11-09T07:09:34;4.25;;;1.92;;
32637;SDS011;19045;52.268;10.506;2022-11-09T07:12:02;4.40;;;2.40;;
32637;SDS011;19045;52.268;10.506;2022-11-09T07:14:29;5.25;;;2.40;;
32637;SDS011;19045;52.268;10.506;2022-11-09T07:16:55;3.42;;;2.13;;
32637;SDS011;19045;52.268;10.506;2022-11-09T07:19:22;7.72;;;2.53;;
32637;SDS011;19045;52.268;10.506;2022-11-09T07:21:49;7.25;;;2.45;;
32637;SDS011;19045;52.268;10.506;2022-11-09T07:24:15;6.18;;;3.45;;
32637;SDS011;19045;52.268;10.506;2022-11-09T07:26:42;5.13;;;2.60;;
32637;SDS011;19045;52.268;10.506;2022-11-09T07:29:10;15.32;;;2.75;;
32637;SDS011;19045;52.268;10.506;2022-11-09T07:31:36;10.02;;;3.00;;
32637;SDS011;19045;52.268;10.506;2022-11-09T07:34:03;6.00;;;3.15;;
32637;SDS011;19045;52.268;10.506;2022-11-09T07:36:29;8.95;;;2.83;;
32637;SDS011;19045;52.268;10.506;2022-11-09T07:38:56;6.35;;;2.58;;
32637;SDS011;19045;52.268;10.506;2022-11-09T07:41:23;7.00;;;2.50;;
32637;SDS011;19045;52.268;10.506;2022-11-09T07:43:50;7.03;;;2.45;;
32637;SDS011;19045;52.268;10.506;2022-11-09T07:46:18;5.30;;;2.38;;
32637;SDS011;19045;52.268;10.506;2022-11-09T07:48:44;4.72;;;1.75;;
32637;SDS011;19045;52.268;10.506;2022-11-09T07:51:11;3.83;;;2.08;;
32637;SDS011;19045;52.268;10.506;2022-11-09T07:53:38;6.93;;;1.73;;
32637;SDS011;19045;52.268;10.506;2022-11-09T07:56:05;5.13;;;2.38;;
32637;SDS011;19045;52.268;10.506;2022-11-09T07:58:32;8.30;;;2.05;;
32637;SDS011;19045;52.268;10.506;2022-11-09T08:01:00;9.10;;;1.70;;
32637;SDS011;19045;52.268;10.506;2022-11-09T08:03:33;4.70;;;1.70;;
32637;SDS011;19045;52.268;10.506;2022-11-09T08:06:01;3.85;;;2.10;;
32637;SDS011;19045;52.268;10.506;2022-11-09T08:08:28;6.53;;;2.03;;
32637;SDS011;19045;52.268;10.506;2022-11-09T08:10:55;7.57;;;2.30;;
32637;SDS011;19045;52.268;10.506;2022-11-09T08:13:22;9.10;;;1.77;;
32637;SDS011;19045;52.268;10.506;2022-11-09T08:15:49;6.78;;;2.25;;
32637;SDS011;19045;52.268;10.506;2022-11-09T08:18:17;6.28;;;2.08;;
32637;SDS011;19045;52.268;10.506;2022-11-09T08:20:46;5.22;;;1.42;;
32637;SDS011;19045;52.268;10.506;2022-11-09T08:23:14;4.88;;;1.73;;
32637;SDS011;19045;52.268;10.506;2022-11-09T08:25:42;3.38;;;1.40;;
32637;SDS011;19045;52.268;10.506;2022-11-09T08:28:09;3.15;;;1.63;;
32637;SDS011;19045;52.268;10.506;2022-11-09T08:30:35;3.67;;;1.40;;
32637;SDS011;19045;52.268;10.506;2022-11-09T08:33:02;2.78;;;1.40;;
32637;SDS011;19045;52.268;10.506;2022-11-09T08:35:29;5.68;;;1.20;;
32637;SDS011;19045;52.268;10.506;2022-11-09T08:37:59;3.42;;;1.50;;
32637;SDS011;19045;52.268;10.506;2022-11-09T08:40:28;5.35;;;1.20;;
32637;SDS011;19045;52.268;10.506;2022-11-09T08:42:59;6.13;;;1.17;;
32637;SDS011;19045;52.268;10.506;2022-11-09T08:45:26;7.07;;;1.20;;
32637;SDS011;19045;52.268;10.506;2022-11-09T08:47:56;4.22;;;1.38;;
32637;SDS011;19045;52.268;10.506;2022-11-09T08:50:24;4.57;;;1.25;;
32637;SDS011;19045;52.268;10.506;2022-11-09T08:52:50;2.75;;;1.10;;
32637;SDS011;19045;52.268;10.506;2022-11-09T08:55:19;2.30;;;1.42;;
32637;SDS011;19045;52.268;10.506;2022-11-09T08:57:45;3.40;;;1.30;;
32637;SDS011;19045;52.268;10.506;2022-11-09T09:00:12;1.90;;;1.13;;
32637;SDS011;19045;52.268;10.506;2022-11-09T09:02:40;2.88;;;1.40;;
32637;SDS011;19045;52.268;10.506;2022-11-09T09:05:07;1.95;;;0.90;;
32637;SDS011;19045;52.268;10.506;2022-11-09T09:07:33;6.25;;;1.55;;
32637;SDS011;19045;52.268;10.506;2022-11-09T09:10:00;3.40;;;1.10;;
32637;SDS011;19045;52.268;10.506;2022-11-09T09:12:28;3.42;;;1.20;;
32637;SDS011;19045;52.268;10.506;2022-11-09T09:14:54;1.95;;;1.05;;
32637;SDS011;19045;52.268;10.506;2022-11-09T09:17:21;1.95;;;1.25;;
32637;SDS011;19045;52.268;10.506;2022-11-09T09:19:48;4.20;;;1.60;;
32637;SDS011;19045;52.268;10.506;2022-11-09T09:22:14;3.05;;;1.50;;
32637;SDS011;19045;52.268;10.506;2022-11-09T09:24:41;2.20;;;1.45;;
32637;SDS011;19045;52.268;10.506;2022-11-09T09:27:08;6.38;;;1.60;;
32637;SDS011;19045;52.268;10.506;2022-11-09T09:29:35;3.55;;;1.40;;
32637;SDS011;19045;52.268;10.506;2022-11-09T09:32:02;3.13;;;1.67;;
32637;SDS011;19045;52.268;10.506;2022-11-09T09:34:29;3.97;;;1.50;;
32637;SDS011;19045;52.268;10.506;2022-11-09T09:36:56;9.88;;;1.58;;
32637;SDS011;19045;52.268;10.506;2022-11-09T09:39:22;4.50;;;1.20;;
32637;SDS011;19045;52.268;10.506;2022-11-09T09:41:50;2.35;;;1.30;;
32637;SDS011;19045;52.268;10.506;2022-11-09T09:44:22;3.17;;;1.23;;
32637;SDS011;19045;52.268;10.506;2022-11-09T09:46:57;4.45;;;1.20;;
32637;SDS011;19045;52.268;10.506;2022-11-09T09:49:31;4.03;;;1.02;;
32637;SDS011;19045;52.268;10.506;2022-11-09T09:52:04;3.03;;;0.77;;
32637;SDS011;19045;52.268;10.506;2022-11-09T09:54:38;1.65;;;1.08;;
32637;SDS011;19045;52.268;10.506;2022-11-09T09:57:11;2.13;;;0.77;;
32637;SDS011;19045;52.268;10.506;2022-11-09T09:59:42;3.08;;;0.77;;
32637;SDS011;19045;52.268;10.506;2022-11-09T10:02:17;3.15;;;0.80;;
32637;SDS011;19045;52.268;10.506;2022-11-09T10:04:47;1.98;;;0.90;;
32637;SDS011;19045;52.268;10.506;2022-11-09T10:07:16;2.47;;;0.52;;
32637;SDS011;19045;52.268;10.506;2022-11-09T10:10:02;2.47;;;0.95;;
32637;SDS011;19045;52.268;10.506;2022-11-09T10:12:47;3.05;;;0.70;;
32637;SDS011;19045;52.268;10.506;2022-11-09T10:15:24;3.85;;;1.00;;
32637;SDS011;19045;52.268;10.506;2022-11-09T10:20:54;2.00;;;0.73;;
32637;SDS011;19045;52.268;10.506;2022-11-09T10:23:39;1.40;;;0.70;;
32637;SDS011;19045;52.268;10.506;2022-11-09T10:26:13;4.47;;;0.85;;
32637;SDS011;19045;52.268;10.506;2022-11-09T10:28:43;1.00;;;0.80;;
32637;SDS011;19045;52.268;10.506;2022-11-09T10:31:14;0.50;;;0.50;;
32637;SDS011;19045;52.268;10.506;2022-11-09T10:33:46;1.50;;;0.60;;
32637;SDS011;19045;52.268;10.506;2022-11-09T10:36:20;1.77;;;0.50;;
32637;SDS011;19045;52.268;10.506;2022-11-09T10:38:50;3.10;;;0.50;;
32637;SDS011;19045;52.268;10.506;2022-11-09T10:41:23;2.33;;;0.52;;
32637;SDS011;19045;52.268;10.506;2022-11-09T10:43:54;4.18;;;0.43;;
32637;SDS011;19045;52.268;10.506;2022-11-09T10:46:21;2.53;;;0.20;;
32637;SDS011;19045;52.268;10.506;2022-11-09T10:48:50;1.05;;;0.30;;
32637;SDS011;19045;52.268;10.506;2022-11-09T10:51:32;2.58;;;0.55;;
32637;SDS011;19045;52.268;10.506;2022-11-09T10:54:13;1.27;;;0.40;;
32637;SDS011;19045;52.268;10.506;2022-11-09T10:56:45;1.42;;;0.70;;
32637;SDS011;19045;52.268;10.506;2022-11-09T10:59:30;3.33;;;0.80;;
32637;SDS011;19045;52.268;10.506;2022-11-09T11:02:09;1.25;;;0.43;;
32637;SDS011;19045;52.268;10.506;2022-11-09T11:08:24;2.58;;;0.60;;
32637;SDS011;19045;52.268;10.506;2022-11-09T11:11:07;2.00;;;0.70;;
32637;SDS011;19045;52.268;10.506;2022-11-09T11:13:42;2.90;;;0.80;;
32637;SDS011;19045;52.268;10.506;2022-11-09T11:16:13;3.15;;;0.70;;
32637;SDS011;19045;52.268;10.506;2022-11-09T11:18:43;2.10;;;0.68;;
32637;SDS011;19045;52.268;10.506;2022-11-09T11:21:14;4.22;;;0.40;;
32637;SDS011;19045;52.268;10.506;2022-11-09T11:23:42;3.10;;;0.93;;
32637;SDS011;19045;52.268;10.506;2022-11-09T11:26:30;4.15;;;0.80;;
32637;SDS011;19045;52.268;10.506;2022-11-09T11:29:04;2.58;;;1.02;;
32637;SDS011;19045;52.268;10.506;2022-11-09T11:31:38;4.80;;;0.90;;
32637;SDS011;19045;52.268;10.506;2022-11-09T11:34:07;3.80;;;1.02;;
32637;SDS011;19045;52.268;10.506;2022-11-09T11:36:45;3.13;;;0.82;;
32637;SDS011;19045;52.268;10.506;2022-11-09T11:39:23;3.38;;;0.63;;
32637;SDS011;19045;52.268;10.506;2022-11-09T11:42:02;2.60;;;0.52;;
32637;SDS011;19045;52.268;10.506;2022-11-09T11:44:52;3.08;;;0.52;;
32637;SDS011;19045;52.268;10.506;2022-11-09T11:47:32;2.55;;;0.80;;
32637;SDS011;19045;52.268;10.506;2022-11-09T11:50:18;2.50;;;0.70;;
32637;SDS011;19045;52.268;10.506;2022-11-09T11:53:08;3.38;;;0.60;;
32637;SDS011;19045;52.268;10.506;2022-11-09T11:55:57;1.63;;;0.60;;
32637;SDS011;19045;52.268;10.506;2022-11-09T11:58:44;2.40;;;0.50;;
32637;SDS011;19045;52.268;10.506;2022-11-09T12:01:23;0.80;;;0.40;;
32637;SDS011;19045;52.268;10.506;2022-11-09T12:04:02;1.38;;;0.47;;
32637;SDS011;19045;52.268;10.506;2022-11-09T12:06:47;0.80;;;0.40;;
32637;SDS011;19045;52.268;10.506;2022-11-09T12:09:28;0.90;;;0.50;;
32637;SDS011;19045;52.268;10.506;2022-11-09T12:12:07;1.30;;;0.50;;
32637;SDS011;19045;52.268;10.506;2022-11-09T12:14:44;2.10;;;0.47;;
32637;SDS011;19045;52.268;10.506;2022-11-09T12:17:20;2.65;;;0.70;;
32637;SDS011;19045;52.268;10.506;2022-11-09T12:20:00;0.88;;;0.35;;
32637;SDS011;19045;52.268;10.506;2022-11-09T12:22:41;1.98;;;0.70;;
32637;SDS011;19045;52.268;10.506;2022-11-09T12:25:15;1.70;;;0.50;;
32637;SDS011;19045;52.268;10.506;2022-11-09T12:30:27;5.28;;;1.15;;
32637;SDS011;19045;52.268;10.506;2022-11-09T12:33:06;3.88;;;0.60;;
32637;SDS011;19045;52.268;10.506;2022-11-09T12:35:39;1.98;;;0.63;;
32637;SDS011;19045;52.268;10.506;2022-11-09T12:38:14;1.92;;;0.70;;
32637;SDS011;19045;52.268;10.506;2022-11-09T12:43:20;0.95;;;0.52;;
32637;SDS011;19045;52.268;10.506;2022-11-09T12:45:50;2.45;;;0.90;;
32637;SDS011;19045;52.268;10.506;2022-11-09T12:48:20;2.40;;;0.80;;
32637;SDS011;19045;52.268;10.506;2022-11-09T12:51:11;2.05;;;0.90;;
32637;SDS011;19045;52.268;10.506;2022-11-09T12:53:38;1.38;;;0.68;;
32637;SDS011;19045;52.268;10.506;2022-11-09T12:56:19;3.08;;;0.70;;
32637;SDS011;19045;52.268;10.506;2022-11-09T12:58:49;1.65;;;0.70;;
32637;SDS011;19045;52.268;10.506;2022-11-09T13:04:14;1.25;;;0.70;;
32637;SDS011;19045;52.268;10.506;2022-11-09T13:06:48;1.08;;;0.70;;
32637;SDS011;19045;52.268;10.506;2022-11-09T13:09:53;3.85;;;0.85;;
32637;SDS011;19045;52.268;10.506;2022-11-09T13:12:29;1.75;;;0.80;;
32637;SDS011;19045;52.268;10.506;2022-11-09T13:15:22;2.50;;;0.85;;
32637;SDS011;19045;52.268;10.506;2022-11-09T13:18:02;2.05;;;0.60;;
32637;SDS011;19045;52.268;10.506;2022-11-09T13:33:14;2.85;;;0.75;;
32637;SDS011;19045;52.268;10.506;2022-11-09T13:36:11;2.15;;;0.93;;
32637;SDS011;19045;52.268;10.506;2022-11-09T13:38:41;7.82;;;0.98;;
32637;SDS011;19045;52.268;10.506;2022-11-09T13:44:14;3.10;;;1.10;;
32637;SDS011;19045;52.268;10.506;2022-11-09T13:46:48;5.72;;;1.50;;
32637;SDS011;19045;52.268;10.506;2022-11-09T13:55:16;9.15;;;1.73;;
32637;SDS011;19045;52.268;10.506;2022-11-09T13:57:50;3.10;;;1.27;;
32637;SDS011;19045;52.268;10.506;2022-11-09T14:00:19;2.33;;;0.90;;
32637;SDS011;19045;52.268;10.506;2022-11-09T14:02:53;2.60;;;1.10;;
32637;SDS011;19045;52.268;10.506;2022-11-09T14:05:23;3.53;;;1.30;;
32637;SDS011;19045;52.268;10.506;2022-11-09T14:07:53;4.63;;;1.30;;
32637;SDS011;19045;52.268;10.506;2022-11-09T14:10:24;5.05;;;1.35;;
32637;SDS011;19045;52.268;10.506;2022-11-09T14:13:17;4.45;;;1.33;;
32637;SDS011;19045;52.268;10.506;2022-11-09T14:15:56;2.85;;;1.10;;
32637;SDS011;19045;52.268;10.506;2022-11-09T14:18:33;4.22;;;1.02;;
32637;SDS011;19045;52.268;10.506;2022-11-09T14:21:14;4.80;;;1.45;;
32637;SDS011;19045;52.268;10.506;2022-11-09T14:23:52;5.03;;;1.40;;
32637;SDS011;19045;52.268;10.506;2022-11-09T14:26:20;5.53;;;1.30;;
32637;SDS011;19045;52.268;10.506;2022-11-09T14:28:48;5.00;;;1.67;;
32637;SDS011;19045;52.268;10.506;2022-11-09T14:31:20;3.40;;;1.20;;
32637;SDS011;19045;52.268;10.506;2022-11-09T14:33:57;3.67;;;0.98;;
32637;SDS011;19045;52.268;10.506;2022-11-09T14:36:26;4.35;;;1.23;;
32637;SDS011;19045;52.268;10.506;2022-11-09T14:38:54;7.25;;;2.30;;
32637;SDS011;19045;52.268;10.506;2022-11-09T14:41:23;6.53;;;2.08;;
32637;SDS011;19045;52.268;10.506;2022-11-09T14:43:52;4.75;;;1.92;;
32637;SDS011;19045;52.268;10.506;2022-11-09T14:46:20;6.93;;;1.58;;
32637;SDS011;19045;52.268;10.506;2022-11-09T14:48:49;8.95;;;2.30;;
32637;SDS011;19045;52.268;10.506;2022-11-09T14:51:18;7.25;;;1.70;;
32637;SDS011;19045;52.268;10.506;2022-11-09T14:53:47;5.90;;;1.65;;
32637;SDS011;19045;52.268;10.506;2022-11-09T14:56:27;3.97;;;1.10;;
32637;SDS011;19045;52.268;10.506;2022-11-09T14:58:57;3.60;;;0.90;;
32637;SDS011;19045;52.268;10.506;2022-11-09T15:01:26;2.55;;;0.80;;
32637;SDS011;19045;52.268;10.506;2022-11-09T15:04:06;3.97;;;1.00;;
32637;SDS011;19045;52.268;10.506;2022-11-09T15:06:42;2.45;;;1.10;;
32637;SDS011;19045;52.268;10.506;2022-11-09T15:09:13;5.75;;;1.48;;
32637;SDS011;19045;52.268;10.506;2022-11-09T15:11:42;1.67;;;1.03;;
32637;SDS011;19045;52.268;10.506;2022-11-09T15:14:10;4.63;;;1.17;;
32637;SDS011;19045;52.268;10.506;2022-11-09T15:16:38;2.95;;;0.90;;
32637;SDS011;19045;52.268;10.506;2022-11-09T15:19:19;4.05;;;1.10;;
32637;SDS011;19045;52.268;10.506;2022-11-09T15:21:57;3.75;;;1.00;;
32637;SDS011;19045;52.268;10.506;2022-11-09T15:24:25;1.80;;;1.10;;
32637;SDS011;19045;52.268;10.506;2022-11-09T15:26:54;3.25;;;1.10;;
32637;SDS011;19045;52.268;10.506;2022-11-09T15:29:26;2.58;;;1.13;;
32637;SDS011;19045;52.268;10.506;2022-11-09T15:32:05;5.10;;;1.00;;